Time;durP1;ratioP1;P1;durP2;ratioP2;P2;SDS_P1;SDS_P2;PMS_P1;PMS_P2;Temp;Humidity;BMP_temperature;BMP_pressure;BME280_temperature;BME280_humidity;BME280_pressure;Samples;Min_cycle;Max_cycle;Signal;HPM_P1;HPM_P2
2023/10/12 00:02:48;;;;;;;13.98;7.60;;;;;;;16.14;62.24;100159.50;7765633;32;39621;-80
2023/10/12 00:07:25;;;;;;;10.88;6.65;;;;;;;16.19;62.79;100155.84;7765883;32;38397;-80
2023/10/12 00:11:46;;;;;;;13.27;7.12;;;;;;;15.93;63.87;100144.44;7765842;32;37934;-80
2023/10/12 00:16:02;;;;;;;13.38;6.82;;;;;;;16.26;62.38;100136.19;7765459;32;39794;-80
2023/10/12 00:20:35;;;;;;;13.90;7.30;;;;;;;16.11;62.30;100129.84;7765300;32;40768;-79
2023/10/12 00:24:52;;;;;;;15.73;6.65;;;;;;;15.87;63.06;100123.66;7765318;32;37971;-80
2023/10/12 00:29:09;;;;;;;18.08;7.60;;;;;;;16.00;62.50;100122.88;7765393;32;36887;-80
2023/10/12 00:33:26;;;;;;;19.02;6.87;;;;;;;16.05;62.18;100121.97;7765144;32;39924;-80
2023/10/12 00:37:43;;;;;;;11.15;6.50;;;;;;;15.83;62.75;100126.16;7765178;32;40006;-80
2023/10/12 00:42:00;;;;;;;13.82;6.93;;;;;;;15.97;61.89;100120.75;7765119;32;38586;-80
2023/10/12 00:46:21;;;;;;;16.55;8.15;;;;;;;15.86;61.86;100111.00;7765152;32;36658;-80
2023/10/12 00:50:38;;;;;;;14.45;7.53;;;;;;;16.06;61.23;100101.63;7765182;32;40055;-80
2023/10/12 00:55:02;;;;;;;12.98;7.78;;;;;;;16.10;61.24;100100.69;7764879;32;40467;-80
2023/10/12 00:59:21;;;;;;;13.75;8.30;;;;;;;16.19;60.88;100105.50;7764894;32;38783;-80
2023/10/12 01:03:39;;;;;;;13.90;8.48;;;;;;;15.99;61.20;100113.00;7763072;32;36012;-80
2023/10/12 01:07:55;;;;;;;14.30;8.75;;;;;;;15.92;61.43;100112.56;7764764;32;40069;-81
2023/10/12 01:12:14;;;;;;;15.02;8.43;;;;;;;15.80;61.82;100109.44;7764609;32;40896;-80
2023/10/12 01:16:58;;;;;;;14.45;8.48;;;;;;;16.01;60.92;100119.00;7764516;32;38687;-80
2023/10/12 01:21:14;;;;;;;15.82;10.23;;;;;;;16.11;60.33;100109.78;7763364;32;36699;-80
2023/10/12 01:25:31;;;;;;;19.67;10.13;;;;;;;16.05;60.40;100100.78;7764362;32;39941;-80
2023/10/12 01:29:47;;;;;;;16.70;9.52;;;;;;;15.86;60.92;100108.25;7764010;32;39915;-81
2023/10/12 01:34:04;;;;;;;16.48;9.45;;;;;;;15.80;61.08;100109.44;7764064;32;38777;-80
2023/10/12 01:38:21;;;;;;;19.52;10.70;;;;;;;15.65;61.42;100111.28;7764081;32;37831;-80
2023/10/12 01:46:57;;;;;;;18.27;9.85;;;;;;;15.91;60.24;100105.44;7763846;32;40066;-83
2023/10/12 01:51:31;;;;;;;17.42;10.00;;;;;;;15.86;60.35;100100.00;7763710;32;38887;-83
2023/10/12 01:55:48;;;;;;;15.30;9.90;;;;;;;15.73;60.54;100096.06;7763538;32;37102;-83
2023/10/12 02:00:15;;;;;;;19.10;10.77;;;;;;;15.82;60.49;100101.75;7763579;32;39912;-80
2023/10/12 02:04:32;;;;;;;18.05;10.30;;;;;;;15.69;60.80;100106.81;7763348;32;40837;-82
2023/10/12 02:08:59;;;;;;;17.55;10.30;;;;;;;15.63;60.87;100104.47;7763260;32;37583;-80
2023/10/12 02:13:16;;;;;;;16.73;10.30;;;;;;;15.63;60.51;100096.22;7763813;32;37395;-80
2023/10/12 02:17:35;;;;;;;20.00;10.70;;;;;;;15.64;60.13;100095.91;7766828;32;39952;-80
2023/10/12 02:21:59;;;;;;;20.77;11.25;;;;;;;15.68;59.83;100091.47;7766778;32;39984;-80
2023/10/12 02:30:53;;;;;;;16.42;10.98;;;;;;;15.69;59.54;100081.28;7766519;32;37821;-80
2023/10/12 02:35:11;;;;;;;18.77;11.40;;;;;;;15.63;59.69;100088.78;7766507;32;40033;-80
2023/10/12 02:39:28;;;;;;;19.75;11.30;;;;;;;15.52;60.17;100092.78;7766543;32;40939;-80
2023/10/12 02:43:53;;;;;;;20.37;12.20;;;;;;;15.48;60.20;100094.53;7766363;32;39034;-80
2023/10/12 02:48:13;;;;;;;17.23;10.35;;;;;;;15.59;59.68;100085.00;7766529;32;37861;-80
2023/10/12 02:52:31;;;;;;;18.75;9.50;;;;;;;15.49;60.38;100083.22;7766413;32;39931;-81
2023/10/12 02:56:47;;;;;;;19.20;9.90;;;;;;;15.47;61.76;100090.12;7766384;32;38927;-80
2023/10/12 03:01:13;;;;;;;13.40;8.80;;;;;;;15.37;61.99;100088.34;7766190;32;38064;-80
2023/10/12 03:05:32;;;;;;;18.15;10.13;;;;;;;15.62;60.51;100089.91;7766272;32;37009;-80
2023/10/12 03:09:56;;;;;;;15.93;9.90;;;;;;;15.30;60.56;100083.22;7766209;32;40111;-80
2023/10/12 03:14:14;;;;;;;18.70;9.38;;;;;;;15.21;61.66;100088.56;7766141;32;39974;-80
2023/10/12 03:18:32;;;;;;;16.25;8.57;;;;;;;15.27;61.43;100083.00;7765833;32;37653;-80
2023/10/12 03:22:53;;;;;;;14.13;9.68;;;;;;;15.36;60.71;100084.78;7765989;32;37522;-80
2023/10/12 03:27:17;;;;;;;16.35;9.80;;;;;;;15.25;60.36;100094.28;7765893;32;39396;-80
2023/10/12 03:31:35;;;;;;;17.75;10.35;;;;;;;15.09;60.57;100096.44;7764603;32;39905;-80
2023/10/12 03:35:57;;;;;;;18.40;11.68;;;;;;;15.00;61.78;100081.69;7765814;32;37168;-80
2023/10/12 03:44:49;;;;;;;18.05;11.30;;;;;;;15.05;61.91;100095.38;7765828;32;38884;-79
2023/10/12 03:49:17;;;;;;;19.48;10.32;;;;;;;14.95;61.69;100088.09;7765654;32;40858;-80
2023/10/12 03:53:45;;;;;;;15.10;9.27;;;;;;;14.89;61.95;100092.00;7765554;32;38775;-80
2023/10/12 04:02:24;;;;;;;24.40;12.57;;;;;;;15.00;60.72;100093.53;7765573;32;39439;-80
2023/10/12 04:07:37;;;;;;;16.60;10.18;;;;;;;14.92;60.91;100094.16;7765647;32;39005;-80
2023/10/12 04:20:33;;;;;;;17.15;10.57;;;;;;;14.88;60.60;100087.59;7765358;32;39322;-81
2023/10/12 04:24:54;;;;;;;19.62;10.20;;;;;;;14.78;60.84;100087.72;7765444;32;39605;-80
2023/10/12 04:33:29;;;;;;;16.42;9.60;;;;;;;14.86;60.14;100076.09;7765074;32;37896;-80
2023/10/12 04:37:47;;;;;;;14.57;8.68;;;;;;;14.81;60.89;100073.44;7764254;32;40017;-80
2023/10/12 04:42:20;;;;;;;15.82;9.68;;;;;;;15.06;59.35;100071.50;7765189;32;40063;-79
2023/10/12 04:46:48;;;;;;;;;;;;;;;14.69;60.04;100076.59;7765382;32;37947;-80
2023/10/12 04:51:07;;;;;;;13.85;9.10;;;;;;;14.75;59.80;100074.63;7765271;32;37475;-80
2023/10/12 04:55:23;;;;;;;15.13;9.60;;;;;;;14.81;59.47;100070.69;7764928;32;39232;-80
2023/10/12 04:59:49;;;;;;;15.65;8.82;;;;;;;14.50;60.38;100073.75;7764836;32;40867;-79
2023/10/12 05:04:09;;;;;;;15.02;8.48;;;;;;;14.39;60.89;100073.03;7764726;32;37727;-79
2023/10/12 05:08:27;;;;;;;19.95;9.45;;;;;;;14.41;60.96;100075.50;7764797;32;36982;-80
2023/10/12 05:12:44;;;;;;;13.68;9.45;;;;;;;14.44;61.15;100080.41;7764722;32;40018;-79
2023/10/12 05:17:00;;;;;;;15.23;9.48;;;;;;;14.56;60.58;100078.06;7764621;32;41002;-79
2023/10/12 05:21:16;;;;;;;15.57;9.40;;;;;;;14.44;61.20;100086.72;7764386;32;38602;-79
2023/10/12 05:25:47;;;;;;;15.75;9.10;;;;;;;14.51;61.19;100086.38;7764362;32;37856;-79
2023/10/12 05:30:13;;;;;;;18.80;8.90;;;;;;;14.56;60.98;100091.78;7764218;32;38980;-79
2023/10/12 05:34:34;;;;;;;15.18;9.20;;;;;;;14.51;60.86;100085.56;7764065;32;40733;-79
2023/10/12 05:38:51;;;;;;;18.52;8.95;;;;;;;14.56;60.65;100094.53;7764080;32;37639;-79
2023/10/12 05:43:18;;;;;;;15.77;8.88;;;;;;;14.60;60.63;100095.63;7763979;32;37259;-80
2023/10/12 05:47:35;;;;;;;14.65;9.55;;;;;;;14.50;61.42;100090.22;7764790;32;39255;-79
2023/10/12 05:51:51;;;;;;;15.40;10.40;;;;;;;14.54;61.84;100090.44;7767070;32;39992;-79
2023/10/12 05:56:08;;;;;;;16.05;10.02;;;;;;;14.55;62.47;100092.09;7766766;32;38137;-80
2023/10/12 06:00:36;;;;;;;14.15;9.10;;;;;;;14.57;62.63;100098.09;7767040;32;36835;-82
2023/10/12 06:04:53;;;;;;;15.75;9.38;;;;;;;14.51;62.74;100102.03;7767088;32;39329;-81
2023/10/12 06:09:13;;;;;;;22.65;9.48;;;;;;;14.72;62.37;100108.13;7766967;32;39827;-80
2023/10/12 06:13:40;;;;;;;18.75;9.73;;;;;;;14.79;61.98;100106.66;7766957;32;37970;-79
2023/10/12 06:17:57;;;;;;;16.00;9.43;;;;;;;14.59;62.78;100115.09;7766844;32;36853;-79
2023/10/12 06:22:19;;;;;;;20.90;9.80;;;;;;;14.97;61.79;100099.59;7766741;32;39975;-79
2023/10/12 06:26:36;;;;;;;15.37;10.10;;;;;;;15.00;61.86;100114.66;7766913;32;41274;-79
2023/10/12 06:30:52;;;;;;;14.40;8.18;;;;;;;15.02;62.13;100110.50;7766300;32;37576;-79
2023/10/12 06:48:21;;;;;;;20.85;11.27;;;;;;;15.06;63.14;100134.63;7766408;32;38031;-81
2023/10/12 06:52:35;;;;;;;16.77;10.52;;;;;;;15.53;61.85;100122.72;7766382;32;37113;-81
2023/10/12 06:56:51;;;;;;;17.62;10.70;;;;;;;15.74;61.15;100125.97;7766329;32;39275;-81
2023/10/12 07:05:53;;;;;;;15.57;9.63;;;;;;;15.08;62.75;100122.25;7737085;32;37873;-82
2023/10/12 07:14:31;;;;;;;22.20;11.15;;;;;;;15.52;61.71;100115.63;7765960;32;40171;-79
2023/10/12 07:18:49;;;;;;;16.60;9.80;;;;;;;15.38;62.01;100104.56;7765822;32;40894;-80
2023/10/12 07:23:34;;;;;;;24.85;13.48;;;;;;;15.80;61.07;100115.78;7765889;32;38761;-80
2023/10/12 07:27:59;;;;;;;26.45;20.45;;;;;;;16.31;58.51;100111.34;7765793;32;37047;-80
2023/10/12 07:32:31;;;;;;;13.10;7.53;;;;;;;16.66;58.47;100106.28;7765736;32;40086;-81
2023/10/12 07:36:57;;;;;;;13.82;7.05;;;;;;;17.01;55.81;100104.00;7765812;32;40858;-81
2023/10/12 07:41:14;;;;;;;15.48;7.25;;;;;;;17.31;54.02;100101.72;7765729;32;38694;-80
2023/10/12 07:45:38;;;;;;;11.77;6.55;;;;;;;17.63;53.38;100104.28;7765729;32;37854;-80
2023/10/12 07:49:57;;;;;;;14.93;7.10;;;;;;;17.91;52.69;100097.87;7765807;32;39058;-79
2023/10/12 07:54:46;;;;;;;14.32;6.93;;;;;;;18.20;51.84;100094.66;7765737;32;39863;-80
2023/10/12 07:58:57;;;;;;;10.10;6.65;;;;;;;18.28;52.17;100082.88;7765459;32;37933;-80
2023/10/12 08:07:59;;;;;;;11.55;6.75;;;;;;;18.14;51.45;100082.94;7765585;32;40887;-79
2023/10/12 08:12:23;;;;;;;12.35;6.22;;;;;;;18.68;50.43;100082.88;7764320;32;40762;-81
2023/10/12 08:16:40;;;;;;;12.82;6.35;;;;;;;18.98;50.03;100080.41;7765278;32;38091;-79
2023/10/12 08:21:00;;;;;;;14.32;7.07;;;;;;;19.29;48.77;100085.00;7765400;32;37834;-80
2023/10/12 08:25:27;;;;;;;9.30;5.37;;;;;;;19.75;48.80;100078.06;7765292;32;39800;-80
2023/10/12 08:34:13;;;;;;;17.80;6.62;;;;;;;20.17;47.33;100070.00;7765050;32;36899;-79
2023/10/12 08:38:40;;;;;;;13.07;6.25;;;;;;;20.30;46.85;100065.44;7765005;32;37058;-80
2023/10/12 08:42:58;;;;;;;13.88;6.95;;;;;;;20.55;46.71;100063.69;7765067;32;38935;-80
2023/10/12 08:48:01;;;;;;;12.95;6.15;;;;;;;20.26;47.24;100062.50;7764830;32;39015;-79
2023/10/12 08:52:14;;;;;;;9.95;5.50;;;;;;;21.36;45.05;100059.00;7760639;32;37621;-79
2023/10/12 08:56:35;;;;;;;12.00;5.43;;;;;;;21.56;44.00;100067.72;7764925;32;37678;-80
2023/10/12 09:05:24;;;;;;;13.85;6.18;;;;;;;22.02;43.38;100059.44;7764825;32;40053;-80
2023/10/12 09:09:49;;;;;;;14.57;5.75;;;;;;;22.28;42.43;100050.84;7763580;32;37926;-80
2023/10/12 09:14:11;;;;;;;9.05;5.45;;;;;;;22.05;42.52;100044.88;7764630;32;37737;-81
2023/10/12 09:18:43;;;;;;;9.55;5.75;;;;;;;22.96;41.09;100039.19;7764580;32;40114;-81
2023/10/12 09:23:05;;;;;;;11.52;6.32;;;;;;;22.96;40.29;100043.94;7764008;32;40815;-80
2023/10/12 09:27:36;;;;;;;12.77;6.57;;;;;;;22.75;41.71;100050.44;7764340;32;38797;-81
2023/10/12 09:32:19;;;;;;;11.30;6.22;;;;;;;22.71;41.72;100048.69;7758642;32;172247;-80
2023/10/12 09:36:53;;;;;;;;;;;;;;;21.54;44.33;100059.72;7764506;32;39277;-80
2023/10/12 09:41:14;;;;;;;15.20;6.60;;;;;;;22.74;42.22;100048.81;7764240;32;41186;-80
2023/10/12 09:45:39;;;;;;;12.65;6.85;;;;;;;23.00;41.58;100040.09;7764174;32;38084;-80
2023/10/12 09:49:58;;;;;;;13.57;5.90;;;;;;;21.54;44.27;100047.78;7762803;32;37785;-81
2023/10/12 09:54:27;;;;;;;14.85;6.30;;;;;;;20.97;45.40;100055.53;7763866;32;39111;-80
2023/10/12 09:59:02;;;;;;;13.45;5.80;;;;;;;22.24;43.71;100047.13;7763478;32;39966;-82
2023/10/12 10:03:19;;;;;;;9.90;6.03;;;;;;;22.77;42.25;100041.75;7763547;32;37935;-80
2023/10/12 10:07:36;;;;;;;12.25;6.85;;;;;;;23.04;41.61;100038.25;7762236;32;36923;-81
2023/10/12 10:11:59;;;;;;;12.18;6.28;;;;;;;22.71;42.27;100027.25;7763360;32;40106;-80
2023/10/12 10:16:17;;;;;;;9.85;5.90;;;;;;;23.66;40.98;100023.37;7762090;32;40102;-81
2023/10/12 10:20:50;;;;;;;12.40;6.00;;;;;;;23.12;41.50;100019.84;7763069;32;37630;-80
2023/10/12 10:25:13;;;;;;;15.18;5.50;;;;;;;23.47;40.78;100008.12;7763302;32;37459;-81
2023/10/12 10:30:00;;;;;;;10.43;5.47;;;;;;;23.87;40.24;100004.50;7762873;32;39277;-80
2023/10/12 10:34:24;;;;;;;12.37;5.65;;;;;;;23.61;40.66;99997.41;7763456;32;39992;-81
2023/10/12 10:43:08;;;;;;;10.45;5.30;;;;;;;25.13;37.84;99974.12;7766633;32;36915;-81
2023/10/12 10:47:27;;;;;;;10.20;5.30;;;;;;;25.66;36.52;99956.84;7766625;32;39311;-81
2023/10/12 10:52:01;;;;;;;16.15;5.72;;;;;;;24.13;39.53;99969.78;7766484;32;39892;-82
2023/10/12 10:56:38;;;;;;;9.45;5.00;;;;;;;25.15;38.33;99954.19;7766439;32;37726;-81
2023/10/12 11:00:57;;;;;;;10.63;5.43;;;;;;;25.79;37.02;99943.53;7766068;32;36950;-80
2023/10/12 11:05:19;;;;;;;12.40;5.93;;;;;;;26.28;36.20;99945.56;7766150;32;39429;-81
2023/10/12 11:14:25;;;;;;;11.52;5.53;;;;;;;25.61;36.38;99946.81;7748084;32;38657;-81
2023/10/12 11:18:44;;;;;;;14.63;5.78;;;;;;;26.37;35.59;99940.53;7766043;32;37355;-82
2023/10/12 11:23:07;;;;;;;11.63;5.32;;;;;;;26.84;34.98;99938.47;7766131;32;40076;-81
2023/10/12 11:27:35;;;;;;;11.57;5.12;;;;;;;27.21;34.50;99936.91;7766015;32;40890;-81
2023/10/12 11:32:11;;;;;;;12.25;5.10;;;;;;;27.44;34.78;99929.22;7765643;32;38109;-81
2023/10/12 11:36:27;;;;;;;14.27;5.50;;;;;;;27.99;33.83;99922.97;7765894;32;37798;-82
2023/10/12 11:40:55;;;;;;;11.38;4.95;;;;;;;28.28;33.18;99915.59;7765963;32;40044;-81
2023/10/12 11:45:13;;;;;;;10.23;5.10;;;;;;;28.40;32.79;99903.25;7765676;32;40887;-82
2023/10/12 11:49:45;;;;;;;11.65;4.95;;;;;;;28.20;33.33;99890.69;7765791;32;38003;-81
2023/10/12 11:54:05;;;;;;;12.55;5.25;;;;;;;28.96;31.71;99889.16;7765729;32;37109;-81
2023/10/12 11:58:23;;;;;;;11.02;4.95;;;;;;;28.56;32.54;99885.38;7765569;32;39240;-82
2023/10/12 12:02:39;;;;;;;8.52;5.30;;;;;;;28.81;32.17;99889.09;7765635;32;40041;-81
2023/10/12 12:06:55;;;;;;;14.05;5.10;;;;;;;29.04;31.58;99885.19;7765507;32;38742;-82
2023/10/12 12:11:15;;;;;;;11.98;5.18;;;;;;;29.46;30.91;99882.91;7765683;32;37101;-82
2023/10/12 12:15:31;;;;;;;13.40;4.97;;;;;;;29.56;31.17;99877.34;7765594;32;39197;-81
2023/10/12 12:19:48;;;;;;;9.50;4.75;;;;;;;29.56;30.82;99863.28;7765297;32;40042;-81
2023/10/12 12:24:24;;;;;;;12.32;4.70;;;;;;;29.55;30.55;99858.88;7765291;32;39347;-82
2023/10/12 12:28:44;;;;;;;12.00;5.37;;;;;;;29.99;29.18;99844.84;7765370;32;36688;-81
2023/10/12 12:33:08;;;;;;;10.63;4.80;;;;;;;30.10;30.17;99845.66;7765111;32;39779;-81
2023/10/12 12:37:25;;;;;;;12.88;4.85;;;;;;;29.90;30.11;99836.84;7765036;32;40001;-81
2023/10/12 12:41:42;;;;;;;14.70;4.78;;;;;;;30.22;29.71;99844.41;7765041;32;38668;-82
2023/10/12 12:45:59;;;;;;;11.88;4.97;;;;;;;30.37;29.69;99829.12;7765108;32;37375;-82
2023/10/12 12:50:15;;;;;;;18.70;5.18;;;;;;;30.49;28.90;99833.53;7765105;32;39208;-82
2023/10/12 12:54:35;;;;;;;9.85;4.70;;;;;;;30.25;29.38;99824.75;7764902;32;40023;-82
2023/10/12 12:58:52;;;;;;;9.40;4.47;;;;;;;30.58;29.63;99821.84;7764014;32;37928;-82
2023/10/12 13:03:11;;;;;;;12.50;4.60;;;;;;;30.50;29.01;99819.06;7764869;32;37525;-82
2023/10/12 13:07:28;;;;;;;8.30;4.10;;;;;;;30.93;27.96;99808.84;7764772;32;39413;-82
2023/10/12 13:11:44;;;;;;;12.25;4.60;;;;;;;31.35;26.80;99798.53;7764737;32;39637;-82
2023/10/12 13:16:03;;;;;;;8.35;4.35;;;;;;;30.43;27.72;99809.87;7764520;32;37930;-82
2023/10/12 13:20:28;;;;;;;15.27;4.47;;;;;;;30.44;28.16;99815.09;7764502;32;37723;-82
2023/10/12 13:24:45;;;;;;;11.43;5.10;;;;;;;30.07;29.24;99813.53;7764724;32;39453;-83
2023/10/12 13:29:04;;;;;;;11.82;4.10;;;;;;;29.59;30.30;99816.75;7764571;32;40686;-82
2023/10/12 13:33:23;;;;;;;13.48;4.50;;;;;;;29.49;29.79;99812.72;7764078;32;38436;-83
2023/10/12 13:37:40;;;;;;;17.95;4.30;;;;;;;30.26;29.57;99803.84;7764170;32;37096;-83
2023/10/12 13:41:56;;;;;;;17.33;4.35;;;;;;;30.42;28.41;99799.81;7764062;32;39849;-83
2023/10/12 13:46:13;;;;;;;10.65;4.05;;;;;;;30.20;28.22;99793.41;7763886;32;40558;-82
2023/10/12 13:50:29;;;;;;;8.23;4.12;;;;;;;29.42;29.04;99795.87;7763740;32;38049;-83
2023/10/12 13:54:47;;;;;;;9.70;4.10;;;;;;;30.11;28.62;99791.03;7763809;32;36980;-83
2023/10/12 13:59:05;;;;;;;9.35;4.03;;;;;;;30.56;27.91;99788.50;7763626;32;39511;-82
2023/10/12 14:03:34;;;;;;;10.27;4.70;;;;;;;29.52;29.01;99800.69;7763389;32;40008;-83
2023/10/12 14:08:01;;;;;;;8.15;3.95;;;;;;;29.26;29.81;99796.25;7763743;32;37849;-83
2023/10/12 14:12:18;;;;;;;14.05;4.90;;;;;;;29.24;29.77;99789.47;7767008;32;36984;-84
2023/10/12 14:16:37;;;;;;;8.70;3.80;;;;;;;30.09;29.03;99788.63;7766929;32;39266;-83
2023/10/12 14:20:54;;;;;;;12.15;4.28;;;;;;;30.60;28.49;99783.69;7766856;32;40104;-83
2023/10/12 14:25:17;;;;;;;9.45;3.87;;;;;;;29.98;28.98;99790.66;7766706;32;38658;-83
2023/10/12 14:29:36;;;;;;;16.10;4.50;;;;;;;30.03;28.84;99781.81;7766793;32;37004;-84
2023/10/12 14:33:52;;;;;;;8.77;4.30;;;;;;;30.56;28.54;99776.44;7766697;32;38277;-84
2023/10/12 14:38:14;;;;;;;10.23;4.10;;;;;;;30.67;28.75;99780.81;7766519;32;40926;-84
2023/10/12 14:42:30;;;;;;;10.43;4.50;;;;;;;30.29;28.60;99785.38;7766379;32;38698;-83
2023/10/12 14:46:50;;;;;;;12.25;4.20;;;;;;;30.40;28.50;99788.16;7766421;32;37218;-83
2023/10/12 14:51:12;;;;;;;11.88;4.22;;;;;;;30.03;28.92;99789.44;7766537;32;39219;-84
2023/10/12 14:55:30;;;;;;;;;;;;;;;30.27;29.49;99794.22;7766810;32;40875;-83
2023/10/12 14:59:47;;;;;;;9.15;3.83;;;;;;;31.35;27.46;99793.69;7766533;32;37839;-83
2023/10/12 15:04:07;;;;;;;8.30;3.78;;;;;;;32.82;24.68;99785.78;7766484;32;36963;-83
2023/10/12 15:08:25;;;;;;;11.12;4.28;;;;;;;32.99;24.23;99788.78;7766358;32;40072;-83
2023/10/12 15:12:43;;;;;;;13.13;4.20;;;;;;;32.44;25.17;99797.13;7766188;32;39989;-83
2023/10/12 15:17:00;;;;;;;13.75;4.03;;;;;;;32.03;26.31;99799.97;7766182;32;37001;-83
2023/10/12 15:21:18;;;;;;;14.23;4.10;;;;;;;31.66;26.84;99805.16;7765324;32;36738;-83
2023/10/12 15:25:48;;;;;;;17.50;4.87;;;;;;;30.45;28.33;99815.88;7766304;32;39973;-83
2023/10/12 15:30:05;;;;;;;9.20;3.78;;;;;;;30.08;29.00;99825.56;7765857;32;39631;-83
2023/10/12 15:34:23;;;;;;;8.05;4.25;;;;;;;29.50;30.12;99819.94;7765647;32;37988;-84
2023/10/12 15:38:40;;;;;;;13.30;4.55;;;;;;;29.23;30.74;99827.94;7765755;32;37763;-83
2023/10/12 15:42:59;;;;;;;10.20;4.55;;;;;;;29.08;31.20;99829.06;7765849;32;39727;-83
2023/10/12 15:47:16;;;;;;;12.77;4.53;;;;;;;28.77;31.42;99829.38;7765878;32;40842;-83
2023/10/12 15:51:32;;;;;;;10.07;4.20;;;;;;;28.50;32.40;99825.22;7765751;32;38482;-83
2023/10/12 15:55:49;;;;;;;15.48;4.80;;;;;;;28.05;33.33;99828.97;7765733;32;37088;-83
2023/10/12 16:00:08;;;;;;;15.07;5.72;;;;;;;27.73;33.79;99823.91;7765675;32;39383;-84
2023/10/12 16:04:27;;;;;;;14.70;4.85;;;;;;;27.58;34.18;99827.78;7765718;32;39600;-82
2023/10/12 16:08:46;;;;;;;13.40;4.53;;;;;;;26.93;35.67;99831.88;7765955;32;36979;-82
2023/10/12 16:13:02;;;;;;;12.73;5.50;;;;;;;26.73;35.95;99834.84;7765749;32;36773;-82
2023/10/12 16:17:23;;;;;;;16.48;4.97;;;;;;;26.31;36.79;99837.84;7765495;32;39323;-82
2023/10/12 16:21:40;;;;;;;15.60;5.28;;;;;;;25.97;37.64;99832.16;7765652;32;39898;-83
2023/10/12 16:25:56;;;;;;;12.77;5.10;;;;;;;25.58;38.57;99849.84;7765409;32;38617;-82
2023/10/12 16:30:16;;;;;;;10.52;5.00;;;;;;;25.38;39.14;99851.88;7765183;32;37508;-82
2023/10/12 16:34:33;;;;;;;10.90;5.15;;;;;;;25.19;39.63;99854.69;7764228;32;38956;-82
2023/10/12 16:38:50;;;;;;;15.43;5.22;;;;;;;24.71;40.48;99855.72;7765227;32;40888;-82
2023/10/12 16:43:08;;;;;;;11.75;4.90;;;;;;;24.46;40.78;99862.72;7765037;32;37961;-82
2023/10/12 16:47:25;;;;;;;11.12;5.55;;;;;;;24.25;41.30;99869.41;7765062;32;37764;-82
2023/10/12 16:51:42;;;;;;;14.15;5.72;;;;;;;24.32;40.93;99864.00;7765170;32;39288;-82
2023/10/12 16:55:58;;;;;;;14.65;5.95;;;;;;;24.10;41.58;99859.09;7765100;32;40033;-82
2023/10/12 17:00:15;;;;;;;11.15;4.93;;;;;;;24.09;41.50;99868.62;7764808;32;38688;-81
2023/10/12 17:04:40;;;;;;;12.15;5.70;;;;;;;24.02;41.92;99876.81;7764867;32;37029;-82
2023/10/12 17:08:56;;;;;;;22.00;8.38;;;;;;;23.84;42.37;99873.59;7764842;32;40659;-82
2023/10/12 17:13:14;;;;;;;14.48;6.95;;;;;;;23.69;43.01;99873.19;7764716;32;40568;-81
2023/10/12 17:17:31;;;;;;;12.88;6.10;;;;;;;23.61;43.38;99872.19;7764595;32;38009;-82
2023/10/12 17:21:48;;;;;;;14.70;6.57;;;;;;;23.29;44.17;99873.31;7764368;32;37834;-82
2023/10/12 17:26:04;;;;;;;16.80;7.82;;;;;;;22.95;45.41;99881.06;7764479;32;40088;-82
2023/10/12 17:30:23;;;;;;;14.98;6.62;;;;;;;22.84;45.73;99880.78;7764227;32;39664;-82
2023/10/12 17:34:39;;;;;;;12.10;6.12;;;;;;;22.82;45.57;99860.88;7764260;32;38610;-82
2023/10/12 17:38:57;;;;;;;12.90;5.82;;;;;;;22.57;46.31;99868.47;7764101;32;37105;-82
2023/10/12 17:43:13;;;;;;;16.27;6.00;;;;;;;22.38;46.57;99871.84;7763737;32;39572;-81
2023/10/12 17:47:30;;;;;;;15.43;6.72;;;;;;;22.04;47.58;99862.81;7764078;32;40583;-82
2023/10/12 17:51:47;;;;;;;16.80;6.05;;;;;;;21.99;47.68;99876.91;7763859;32;38489;-81
2023/10/12 17:56:11;;;;;;;14.48;6.60;;;;;;;22.13;47.32;99885.72;7763854;32;37122;-82
2023/10/12 18:00:28;;;;;;;15.80;6.10;;;;;;;22.19;47.36;99894.63;7763656;32;40118;-82
2023/10/12 18:04:45;;;;;;;12.50;6.05;;;;;;;22.01;47.82;99885.69;7763499;32;41089;-82
2023/10/12 18:09:06;;;;;;;15.35;6.53;;;;;;;21.93;48.09;99890.22;7763371;32;38179;-82
2023/10/12 18:13:23;;;;;;;11.35;5.75;;;;;;;21.98;47.99;99887.22;7763448;32;36702;-81
2023/10/12 18:17:39;;;;;;;11.38;5.60;;;;;;;21.80;48.47;99894.97;7763253;32;39262;-82
2023/10/12 18:21:56;;;;;;;13.07;5.57;;;;;;;21.74;48.47;99902.69;7762989;32;40918;-82
2023/10/12 18:26:13;;;;;;;14.90;6.12;;;;;;;21.76;48.51;99905.91;7762910;32;38454;-81
2023/10/12 18:30:30;;;;;;;10.02;5.30;;;;;;;21.67;48.75;99894.13;7761538;32;36999;-81
2023/10/12 18:34:47;;;;;;;11.80;4.87;;;;;;;21.74;48.34;99894.34;7762992;32;39952;-81
2023/10/12 18:39:06;;;;;;;11.63;5.55;;;;;;;21.59;48.97;99897.81;7762623;32;40924;-82
2023/10/12 18:43:22;;;;;;;15.57;6.35;;;;;;;21.67;48.82;99904.41;7762541;32;37920;-82
2023/10/12 18:47:38;;;;;;;13.45;6.05;;;;;;;21.67;48.79;99913.53;7762458;32;37524;-81
2023/10/12 18:51:57;;;;;;;16.87;5.97;;;;;;;21.62;49.05;99899.88;7761255;32;39019;-81
2023/10/12 18:56:15;;;;;;;14.85;5.68;;;;;;;21.59;49.13;99905.31;7763937;32;39876;-82
2023/10/12 19:00:31;;;;;;;15.80;6.15;;;;;;;21.63;49.04;99918.16;7766219;32;37876;-81
2023/10/12 19:04:49;;;;;;;11.80;5.55;;;;;;;21.26;50.34;99922.75;7766286;32;37748;-82
2023/10/12 19:09:06;;;;;;;14.70;5.47;;;;;;;21.35;50.08;99918.75;7766280;32;40080;-82
2023/10/12 19:13:23;;;;;;;12.90;5.97;;;;;;;21.17;50.28;99920.84;7766222;32;40909;-82
2023/10/12 19:17:39;;;;;;;24.27;6.20;;;;;;;21.08;50.57;99922.09;7766318;32;38018;-82
2023/10/12 19:21:59;;;;;;;10.98;5.22;;;;;;;20.83;51.00;99935.81;7766089;32;37041;-82
2023/10/12 19:26:15;;;;;;;12.15;5.53;;;;;;;21.00;50.73;99929.34;7766252;32;39330;-82
2023/10/12 19:30:33;;;;;;;11.90;5.57;;;;;;;21.10;50.57;99939.19;7765818;32;39931;-82
2023/10/12 19:34:50;;;;;;;17.73;5.15;;;;;;;21.03;50.68;99939.75;7765995;32;38574;-82
2023/10/12 19:39:10;;;;;;;15.32;6.10;;;;;;;20.79;51.24;99938.44;7765908;32;37031;-82
2023/10/12 19:43:26;;;;;;;10.80;5.50;;;;;;;20.82;51.04;99935.00;7765940;32;38913;-81
2023/10/12 19:47:44;;;;;;;16.85;5.20;;;;;;;20.57;51.84;99945.06;7765792;32;40089;-81
2023/10/12 19:52:00;;;;;;;16.77;6.35;;;;;;;20.80;51.11;99942.06;7765622;32;38515;-81
2023/10/12 19:56:21;;;;;;;10.75;6.25;;;;;;;20.69;51.71;99946.34;7765809;32;37763;-81
2023/10/12 20:00:40;;;;;;;12.05;5.70;;;;;;;20.18;53.39;99940.72;7765611;32;39934;-82
2023/10/12 20:04:56;;;;;;;15.10;6.15;;;;;;;20.42;52.41;99940.13;7765864;32;39102;-82
2023/10/12 20:09:13;;;;;;;14.48;5.97;;;;;;;20.19;52.97;99934.06;7765395;32;38022;-82
2023/10/12 20:13:33;;;;;;;12.07;7.12;;;;;;;20.43;52.17;99930.69;7765599;32;36956;-81
2023/10/12 20:17:49;;;;;;;19.30;7.30;;;;;;;20.37;52.83;99940.31;7765600;32;39309;-82
2023/10/12 20:22:07;;;;;;;15.48;7.30;;;;;;;20.34;53.02;99946.53;7765371;32;39875;-82
2023/10/12 20:26:25;;;;;;;14.10;6.72;;;;;;;20.22;53.26;99945.28;7765447;32;37885;-81
2023/10/12 20:30:45;;;;;;;12.43;6.45;;;;;;;20.17;53.28;99937.16;7765275;32;35932;-81
2023/10/12 20:35:02;;;;;;;14.07;6.20;;;;;;;20.14;53.30;99926.75;7765464;32;39230;-82
2023/10/12 20:39:23;;;;;;;12.75;5.75;;;;;;;20.22;53.04;99928.66;7765322;32;40671;-81
2023/10/12 20:43:40;;;;;;;14.80;5.75;;;;;;;20.12;53.35;99931.81;7765211;32;38755;-81
2023/10/12 20:47:57;;;;;;;15.05;6.40;;;;;;;20.24;53.14;99929.12;7765215;32;37642;-81
2023/10/12 20:52:13;;;;;;;15.18;5.65;;;;;;;20.16;53.48;99930.00;7765176;32;39507;-82
2023/10/12 20:56:34;;;;;;;13.70;5.65;;;;;;;20.27;53.16;99927.69;7765073;32;39833;-82
2023/10/12 21:00:57;;;;;;;12.65;5.85;;;;;;;20.19;53.35;99918.25;7765069;32;37580;-81
2023/10/12 21:05:26;;;;;;;15.70;5.82;;;;;;;20.21;53.27;99932.59;7763917;32;37720;-81
2023/10/12 21:10:00;;;;;;;13.77;6.07;;;;;;;20.22;53.33;99923.13;7763850;32;39160;-81
2023/10/12 21:14:20;;;;;;;15.15;5.85;;;;;;;20.29;53.06;99913.50;7764787;32;40856;-81
2023/10/12 21:18:42;;;;;;;16.65;5.85;;;;;;;20.24;53.22;99915.31;7763989;32;37731;-80
2023/10/12 21:22:59;;;;;;;11.98;5.75;;;;;;;20.39;52.84;99919.47;7764781;32;37083;-81